sensor_id;sensor_type;location;lat;lon;timestamp;temperature;humidity
62904;DHT22;49000;50.698;13.322;2024-03-23T00:55:50;7.40;99.90
62904;DHT22;49000;50.698;13.322;2024-03-23T00:58:16;7.60;99.90
62904;DHT22;49000;50.698;13.322;2024-03-23T01:00:41;7.50;99.90
62904;DHT22;49000;50.698;13.322;2024-03-23T01:03:07;7.40;99.90
62904;DHT22;49000;50.698;13.322;2024-03-23T01:05:32;7.30;99.90
62904;DHT22;49000;50.698;13.322;2024-03-23T01:07:58;7.40;99.90
62904;DHT22;49000;50.698;13.322;2024-03-23T01:10:23;7.10;99.90
62904;DHT22;49000;50.698;13.322;2024-03-23T01:12:49;6.80;99.90
62904;DHT22;49000;50.698;13.322;2024-03-23T01:15:14;7.10;99.90
62904;DHT22;49000;50.698;13.322;2024-03-23T01:17:40;7.00;99.90
62904;DHT22;49000;50.698;13.322;2024-03-23T01:20:05;7.00;99.90
62904;DHT22;49000;50.698;13.322;2024-03-23T01:22:31;7.00;99.90
62904;DHT22;49000;50.698;13.322;2024-03-23T01:24:57;6.60;99.90
62904;DHT22;49000;50.698;13.322;2024-03-23T01:27:22;6.90;99.90
62904;DHT22;49000;50.698;13.322;2024-03-23T01:29:48;7.00;99.90
62904;DHT22;49000;50.698;13.322;2024-03-23T01:32:14;7.00;99.90
62904;DHT22;49000;50.698;13.322;2024-03-23T01:34:39;7.10;99.90
62904;DHT22;49000;50.698;13.322;2024-03-23T01:37:04;6.70;1.00
62904;DHT22;49000;50.698;13.322;2024-03-23T01:39:30;6.70;1.00
62904;DHT22;49000;50.698;13.322;2024-03-23T01:41:56;6.80;1.00
62904;DHT22;49000;50.698;13.322;2024-03-23T01:44:21;6.60;1.00
62904;DHT22;49000;50.698;13.322;2024-03-23T01:46:47;6.50;1.00
62904;DHT22;49000;50.698;13.322;2024-03-23T01:49:12;6.80;1.00
62904;DHT22;49000;50.698;13.322;2024-03-23T01:51:38;6.30;1.00
62904;DHT22;49000;50.698;13.322;2024-03-23T01:54:05;6.50;1.00
62904;DHT22;49000;50.698;13.322;2024-03-23T01:56:34;6.60;1.00
62904;DHT22;49000;50.698;13.322;2024-03-23T01:59:04;6.60;1.00
62904;DHT22;49000;50.698;13.322;2024-03-23T02:01:29;6.80;1.00
62904;DHT22;49000;50.698;13.322;2024-03-23T02:03:55;6.50;1.00
62904;DHT22;49000;50.698;13.322;2024-03-23T02:06:21;6.30;1.00
62904;DHT22;49000;50.698;13.322;2024-03-23T02:08:48;6.30;1.00
62904;DHT22;49000;50.698;13.322;2024-03-23T02:11:13;6.20;1.00
62904;DHT22;49000;50.698;13.322;2024-03-23T02:13:39;6.50;1.00
62904;DHT22;49000;50.698;13.322;2024-03-23T02:16:05;6.70;1.00
62904;DHT22;49000;50.698;13.322;2024-03-23T02:18:34;6.60;1.00
62904;DHT22;49000;50.698;13.322;2024-03-23T02:21:00;6.80;1.00
62904;DHT22;49000;50.698;13.322;2024-03-23T02:23:26;6.70;1.00
62904;DHT22;49000;50.698;13.322;2024-03-23T02:25:51;6.40;1.00
62904;DHT22;49000;50.698;13.322;2024-03-23T02:28:18;6.50;1.00
62904;DHT22;49000;50.698;13.322;2024-03-23T02:30:44;6.50;1.00
62904;DHT22;49000;50.698;13.322;2024-03-23T02:33:09;6.40;1.00
62904;DHT22;49000;50.698;13.322;2024-03-23T02:35:35;6.80;1.00
62904;DHT22;49000;50.698;13.322;2024-03-23T02:38:00;6.80;1.00
62904;DHT22;49000;50.698;13.322;2024-03-23T02:40:27;6.50;1.00
62904;DHT22;49000;50.698;13.322;2024-03-23T02:42:53;6.50;1.00
62904;DHT22;49000;50.698;13.322;2024-03-23T02:45:18;6.80;1.00
62904;DHT22;49000;50.698;13.322;2024-03-23T02:47:44;6.80;1.00
62904;DHT22;49000;50.698;13.322;2024-03-23T02:50:09;6.40;1.00
62904;DHT22;49000;50.698;13.322;2024-03-23T02:52:35;6.30;1.00
62904;DHT22;49000;50.698;13.322;2024-03-23T02:55:01;6.80;1.00
62904;DHT22;49000;50.698;13.322;2024-03-23T02:57:27;6.50;1.00
62904;DHT22;49000;50.698;13.322;2024-03-23T02:59:53;6.70;1.00
62904;DHT22;49000;50.698;13.322;2024-03-23T03:02:18;6.90;1.00
62904;DHT22;49000;50.698;13.322;2024-03-23T03:04:44;6.60;1.00
62904;DHT22;49000;50.698;13.322;2024-03-23T03:07:09;6.20;1.00
62904;DHT22;49000;50.698;13.322;2024-03-23T03:09:35;6.20;1.00
62904;DHT22;49000;50.698;13.322;2024-03-23T03:12:01;6.20;1.00
62904;DHT22;49000;50.698;13.322;2024-03-23T03:14:27;6.10;1.00
62904;DHT22;49000;50.698;13.322;2024-03-23T03:16:53;6.00;1.00
62904;DHT22;49000;50.698;13.322;2024-03-23T03:19:19;6.00;1.00
62904;DHT22;49000;50.698;13.322;2024-03-23T03:21:44;6.40;1.00
62904;DHT22;49000;50.698;13.322;2024-03-23T03:24:10;6.30;1.00
62904;DHT22;49000;50.698;13.322;2024-03-23T03:26:35;5.90;1.00
62904;DHT22;49000;50.698;13.322;2024-03-23T03:29:01;6.10;1.00
62904;DHT22;49000;50.698;13.322;2024-03-23T03:31:27;6.10;1.00
62904;DHT22;49000;50.698;13.322;2024-03-23T03:33:52;5.80;1.00
62904;DHT22;49000;50.698;13.322;2024-03-23T03:36:18;5.70;1.00
62904;DHT22;49000;50.698;13.322;2024-03-23T03:38:43;5.90;1.00
62904;DHT22;49000;50.698;13.322;2024-03-23T03:41:09;5.50;1.00
62904;DHT22;49000;50.698;13.322;2024-03-23T03:43:34;5.50;1.00
62904;DHT22;49000;50.698;13.322;2024-03-23T03:46:00;5.30;1.00
62904;DHT22;49000;50.698;13.322;2024-03-23T03:48:26;5.60;1.00
62904;DHT22;49000;50.698;13.322;2024-03-23T03:50:52;5.30;1.00
62904;DHT22;49000;50.698;13.322;2024-03-23T03:53:19;5.10;1.00
62904;DHT22;49000;50.698;13.322;2024-03-23T03:55:44;4.90;1.00
62904;DHT22;49000;50.698;13.322;2024-03-23T03:58:10;4.90;1.00
62904;DHT22;49000;50.698;13.322;2024-03-23T04:00:35;5.00;1.00
62904;DHT22;49000;50.698;13.322;2024-03-23T04:03:01;4.70;1.00
62904;DHT22;49000;50.698;13.322;2024-03-23T04:05:27;4.70;1.00
62904;DHT22;49000;50.698;13.322;2024-03-23T04:07:52;4.70;1.00
62904;DHT22;49000;50.698;13.322;2024-03-23T04:10:18;4.90;99.90
62904;DHT22;49000;50.698;13.322;2024-03-23T04:12:44;5.10;99.90
62904;DHT22;49000;50.698;13.322;2024-03-23T04:15:10;4.90;99.90
62904;DHT22;49000;50.698;13.322;2024-03-23T04:17:36;4.90;99.90
62904;DHT22;49000;50.698;13.322;2024-03-23T04:20:02;4.40;99.90
62904;DHT22;49000;50.698;13.322;2024-03-23T04:22:29;4.80;99.90
62904;DHT22;49000;50.698;13.322;2024-03-23T04:24:56;4.80;99.90
62904;DHT22;49000;50.698;13.322;2024-03-23T04:27:22;4.60;99.90
62904;DHT22;49000;50.698;13.322;2024-03-23T04:29:49;4.60;1.00
62904;DHT22;49000;50.698;13.322;2024-03-23T04:32:14;4.50;1.00
62904;DHT22;49000;50.698;13.322;2024-03-23T04:34:40;4.70;1.00
62904;DHT22;49000;50.698;13.322;2024-03-23T04:37:05;4.20;1.00
62904;DHT22;49000;50.698;13.322;2024-03-23T04:39:31;4.10;1.00
62904;DHT22;49000;50.698;13.322;2024-03-23T04:41:56;4.40;1.00
62904;DHT22;49000;50.698;13.322;2024-03-23T04:44:22;3.80;1.00
62904;DHT22;49000;50.698;13.322;2024-03-23T04:46:47;4.10;1.00
62904;DHT22;49000;50.698;13.322;2024-03-23T04:49:13;4.10;1.00
62904;DHT22;49000;50.698;13.322;2024-03-23T04:51:38;4.10;1.00
62904;DHT22;49000;50.698;13.322;2024-03-23T04:54:04;4.20;1.00
62904;DHT22;49000;50.698;13.322;2024-03-23T04:56:31;4.20;1.00
62904;DHT22;49000;50.698;13.322;2024-03-23T04:58:57;3.90;1.00
62904;DHT22;49000;50.698;13.322;2024-03-23T05:01:27;4.00;1.00
62904;DHT22;49000;50.698;13.322;2024-03-23T05:03:52;4.30;1.00
62904;DHT22;49000;50.698;13.322;2024-03-23T05:06:18;3.90;1.00
62904;DHT22;49000;50.698;13.322;2024-03-23T05:08:44;4.20;1.00
62904;DHT22;49000;50.698;13.322;2024-03-23T05:11:09;4.20;1.00
62904;DHT22;49000;50.698;13.322;2024-03-23T05:13:35;4.20;1.00
62904;DHT22;49000;50.698;13.322;2024-03-23T05:16:01;3.70;1.00
62904;DHT22;49000;50.698;13.322;2024-03-23T05:18:26;4.30;1.00
62904;DHT22;49000;50.698;13.322;2024-03-23T05:20:57;4.30;31.20
62904;DHT22;49000;50.698;13.322;2024-03-23T05:23:23;4.00;72.00
62904;DHT22;49000;50.698;13.322;2024-03-23T05:25:49;4.70;95.70
62904;DHT22;49000;50.698;13.322;2024-03-23T05:28:14;4.10;99.90
62904;DHT22;49000;50.698;13.322;2024-03-23T05:30:40;4.60;99.90
62904;DHT22;49000;50.698;13.322;2024-03-23T05:33:05;4.70;99.90
62904;DHT22;49000;50.698;13.322;2024-03-23T05:35:31;4.90;99.90
62904;DHT22;49000;50.698;13.322;2024-03-23T05:37:57;4.80;99.90
62904;DHT22;49000;50.698;13.322;2024-03-23T05:40:24;4.70;1.00
62904;DHT22;49000;50.698;13.322;2024-03-23T05:42:50;5.00;1.00
62904;DHT22;49000;50.698;13.322;2024-03-23T05:45:18;5.00;1.00
62904;DHT22;49000;50.698;13.322;2024-03-23T05:47:44;5.30;2.90
62904;DHT22;49000;50.698;13.322;2024-03-23T05:50:10;5.20;70.10
62904;DHT22;49000;50.698;13.322;2024-03-23T05:52:38;5.50;99.90
62904;DHT22;49000;50.698;13.322;2024-03-23T05:55:04;5.40;99.90
62904;DHT22;49000;50.698;13.322;2024-03-23T05:57:30;5.60;99.90
62904;DHT22;49000;50.698;13.322;2024-03-23T05:59:55;5.60;99.90
62904;DHT22;49000;50.698;13.322;2024-03-23T06:02:21;5.50;99.90
62904;DHT22;49000;50.698;13.322;2024-03-23T06:04:46;5.50;99.90
62904;DHT22;49000;50.698;13.322;2024-03-23T06:07:12;5.70;99.90
62904;DHT22;49000;50.698;13.322;2024-03-23T06:09:39;5.60;99.90
62904;DHT22;49000;50.698;13.322;2024-03-23T06:12:05;5.80;99.90
62904;DHT22;49000;50.698;13.322;2024-03-23T06:14:31;6.30;99.90
62904;DHT22;49000;50.698;13.322;2024-03-23T06:16:58;6.10;99.90
62904;DHT22;49000;50.698;13.322;2024-03-23T06:19:24;6.10;99.90
62904;DHT22;49000;50.698;13.322;2024-03-23T06:21:52;6.30;99.90
62904;DHT22;49000;50.698;13.322;2024-03-23T06:24:17;6.10;99.90
62904;DHT22;49000;50.698;13.322;2024-03-23T06:26:43;6.40;99.90
62904;DHT22;49000;50.698;13.322;2024-03-23T06:29:08;6.70;99.90
62904;DHT22;49000;50.698;13.322;2024-03-23T06:31:34;6.80;99.90
62904;DHT22;49000;50.698;13.322;2024-03-23T06:33:59;6.60;99.90
62904;DHT22;49000;50.698;13.322;2024-03-23T06:36:26;6.60;99.90
62904;DHT22;49000;50.698;13.322;2024-03-23T06:38:52;6.70;99.90
62904;DHT22;49000;50.698;13.322;2024-03-23T06:41:19;7.20;99.90
62904;DHT22;49000;50.698;13.322;2024-03-23T06:43:44;7.10;99.90
62904;DHT22;49000;50.698;13.322;2024-03-23T06:46:10;6.80;99.90
62904;DHT22;49000;50.698;13.322;2024-03-23T06:48:35;6.80;99.90
62904;DHT22;49000;50.698;13.322;2024-03-23T06:51:00;7.20;99.90
62904;DHT22;49000;50.698;13.322;2024-03-23T06:53:26;7.20;99.90
62904;DHT22;49000;50.698;13.322;2024-03-23T06:55:53;6.90;99.90
62904;DHT22;49000;50.698;13.322;2024-03-23T06:58:23;7.00;99.90
62904;DHT22;49000;50.698;13.322;2024-03-23T07:00:49;7.30;99.90
62904;DHT22;49000;50.698;13.322;2024-03-23T07:03:16;7.40;99.90
62904;DHT22;49000;50.698;13.322;2024-03-23T07:05:41;7.50;99.90
62904;DHT22;49000;50.698;13.322;2024-03-23T07:08:08;7.60;99.90
62904;DHT22;49000;50.698;13.322;2024-03-23T07:10:33;7.70;99.90
62904;DHT22;49000;50.698;13.322;2024-03-23T07:12:59;7.80;99.90
62904;DHT22;49000;50.698;13.322;2024-03-23T07:15:24;7.90;99.90
62904;DHT22;49000;50.698;13.322;2024-03-23T07:17:50;7.90;99.90
62904;DHT22;49000;50.698;13.322;2024-03-23T07:20:15;8.00;99.90
62904;DHT22;49000;50.698;13.322;2024-03-23T07:22:41;8.00;99.90
62904;DHT22;49000;50.698;13.322;2024-03-23T07:25:07;8.10;99.90
62904;DHT22;49000;50.698;13.322;2024-03-23T07:27:32;8.20;99.90
62904;DHT22;49000;50.698;13.322;2024-03-23T07:29:59;8.40;99.90
62904;DHT22;49000;50.698;13.322;2024-03-23T07:32:25;8.50;99.90
62904;DHT22;49000;50.698;13.322;2024-03-23T07:34:52;8.70;99.90
62904;DHT22;49000;50.698;13.322;2024-03-23T07:37:17;8.90;39.80
62904;DHT22;49000;50.698;13.322;2024-03-23T07:39:43;9.00;36.40
62904;DHT22;49000;50.698;13.322;2024-03-23T07:42:08;9.10;1.00
62904;DHT22;49000;50.698;13.322;2024-03-23T07:44:34;9.10;2.50
62904;DHT22;49000;50.698;13.322;2024-03-23T07:47:03;9.20;1.00
62904;DHT22;49000;50.698;13.322;2024-03-23T07:49:28;9.20;1.00
62904;DHT22;49000;50.698;13.322;2024-03-23T07:51:53;9.30;1.00
62904;DHT22;49000;50.698;13.322;2024-03-23T07:54:19;9.30;1.00
62904;DHT22;49000;50.698;13.322;2024-03-23T07:56:45;9.50;1.00
62904;DHT22;49000;50.698;13.322;2024-03-23T07:59:10;9.60;1.00
62904;DHT22;49000;50.698;13.322;2024-03-23T08:01:36;9.70;1.00
62904;DHT22;49000;50.698;13.322;2024-03-23T08:04:01;9.80;99.90
62904;DHT22;49000;50.698;13.322;2024-03-23T08:06:27;9.90;99.90
62904;DHT22;49000;50.698;13.322;2024-03-23T08:08:55;9.80;99.90
62904;DHT22;49000;50.698;13.322;2024-03-23T08:11:28;9.90;99.90
62904;DHT22;49000;50.698;13.322;2024-03-23T08:13:54;10.10;99.90
62904;DHT22;49000;50.698;13.322;2024-03-23T08:16:21;10.20;99.90
62904;DHT22;49000;50.698;13.322;2024-03-23T08:18:46;10.30;99.90
62904;DHT22;49000;50.698;13.322;2024-03-23T08:21:12;10.40;99.90
62904;DHT22;49000;50.698;13.322;2024-03-23T08:23:37;10.50;99.90
62904;DHT22;49000;50.698;13.322;2024-03-23T08:26:11;10.70;99.90
62904;DHT22;49000;50.698;13.322;2024-03-23T08:28:37;10.80;88.60
62904;DHT22;49000;50.698;13.322;2024-03-23T08:31:11;10.70;81.00
62904;DHT22;49000;50.698;13.322;2024-03-23T08:33:38;10.60;1.00
62904;DHT22;49000;50.698;13.322;2024-03-23T08:36:09;10.60;1.00
62904;DHT22;49000;50.698;13.322;2024-03-23T08:38:35;10.50;1.00
62904;DHT22;49000;50.698;13.322;2024-03-23T08:41:03;10.50;78.10
62904;DHT22;49000;50.698;13.322;2024-03-23T08:43:29;10.50;1.00
62904;DHT22;49000;50.698;13.322;2024-03-23T08:46:03;10.50;7.90
62904;DHT22;49000;50.698;13.322;2024-03-23T08:48:29;10.50;1.00
62904;DHT22;49000;50.698;13.322;2024-03-23T08:51:05;10.40;1.00
62904;DHT22;49000;50.698;13.322;2024-03-23T08:53:31;10.40;1.00
62904;DHT22;49000;50.698;13.322;2024-03-23T08:55:57;10.30;1.00
62904;DHT22;49000;50.698;13.322;2024-03-23T08:58:25;10.30;1.00
62904;DHT22;49000;50.698;13.322;2024-03-23T09:00:51;10.30;1.00
62904;DHT22;49000;50.698;13.322;2024-03-23T09:03:17;10.30;1.00
62904;DHT22;49000;50.698;13.322;2024-03-23T09:05:42;10.20;1.00
62904;DHT22;49000;50.698;13.322;2024-03-23T09:08:08;10.20;1.00
62904;DHT22;49000;50.698;13.322;2024-03-23T09:10:40;10.10;1.00
62904;DHT22;49000;50.698;13.322;2024-03-23T09:13:07;10.00;1.00
62904;DHT22;49000;50.698;13.322;2024-03-23T09:15:37;10.00;1.00
62904;DHT22;49000;50.698;13.322;2024-03-23T09:18:03;9.90;1.00
62904;DHT22;49000;50.698;13.322;2024-03-23T09:20:32;9.90;1.00
62904;DHT22;49000;50.698;13.322;2024-03-23T09:22:58;9.80;1.00
62904;DHT22;49000;50.698;13.322;2024-03-23T09:25:23;9.90;1.00
62904;DHT22;49000;50.698;13.322;2024-03-23T09:27:49;9.80;3.20
62904;DHT22;49000;50.698;13.322;2024-03-23T09:30:15;9.80;2.20
62904;DHT22;49000;50.698;13.322;2024-03-23T09:32:44;9.70;27.90
62904;DHT22;49000;50.698;13.322;2024-03-23T09:35:10;9.60;32.30
62904;DHT22;49000;50.698;13.322;2024-03-23T09:37:35;9.50;99.90
62904;DHT22;49000;50.698;13.322;2024-03-23T09:40:01;9.30;99.90
62904;DHT22;49000;50.698;13.322;2024-03-23T09:42:27;8.80;99.90
62904;DHT22;49000;50.698;13.322;2024-03-23T09:44:53;8.20;99.90
62904;DHT22;49000;50.698;13.322;2024-03-23T09:47:19;7.90;1.00
62904;DHT22;49000;50.698;13.322;2024-03-23T09:49:44;7.60;1.00
62904;DHT22;49000;50.698;13.322;2024-03-23T09:52:10;7.50;43.40
62904;DHT22;49000;50.698;13.322;2024-03-23T09:54:36;7.40;58.20
62904;DHT22;49000;50.698;13.322;2024-03-23T09:57:01;6.70;90.60
62904;DHT22;49000;50.698;13.322;2024-03-23T09:59:27;6.00;99.90
62904;DHT22;49000;50.698;13.322;2024-03-23T10:01:55;6.20;99.90
62904;DHT22;49000;50.698;13.322;2024-03-23T10:04:41;5.40;99.90
62904;DHT22;49000;50.698;13.322;2024-03-23T10:07:14;5.40;99.70
62904;DHT22;49000;50.698;13.322;2024-03-23T10:09:40;5.00;99.90
62904;DHT22;49000;50.698;13.322;2024-03-23T10:12:13;4.70;99.90
62904;DHT22;49000;50.698;13.322;2024-03-23T10:14:41;4.30;99.90
62904;DHT22;49000;50.698;13.322;2024-03-23T10:19:49;4.40;99.90
62904;DHT22;49000;50.698;13.322;2024-03-23T10:22:20;4.00;99.90
62904;DHT22;49000;50.698;13.322;2024-03-23T10:24:46;4.30;99.90
62904;DHT22;49000;50.698;13.322;2024-03-23T10:27:21;4.50;99.90
62904;DHT22;49000;50.698;13.322;2024-03-23T10:29:48;4.40;99.90
62904;DHT22;49000;50.698;13.322;2024-03-23T10:32:15;4.20;99.90
62904;DHT22;49000;50.698;13.322;2024-03-23T10:34:41;4.00;99.90
62904;DHT22;49000;50.698;13.322;2024-03-23T10:37:07;3.90;99.90
62904;DHT22;49000;50.698;13.322;2024-03-23T10:39:40;3.90;99.90
62904;DHT22;49000;50.698;13.322;2024-03-23T10:42:10;4.30;99.90
62904;DHT22;49000;50.698;13.322;2024-03-23T10:44:36;4.00;99.90
62904;DHT22;49000;50.698;13.322;2024-03-23T10:47:03;3.80;99.90
62904;DHT22;49000;50.698;13.322;2024-03-23T10:49:37;4.40;99.90
62904;DHT22;49000;50.698;13.322;2024-03-23T10:52:03;4.10;99.90
62904;DHT22;49000;50.698;13.322;2024-03-23T10:54:33;4.10;99.90
62904;DHT22;49000;50.698;13.322;2024-03-23T10:57:09;3.70;99.90
62904;DHT22;49000;50.698;13.322;2024-03-23T10:59:37;4.30;99.90
62904;DHT22;49000;50.698;13.322;2024-03-23T11:02:03;3.70;99.90
62904;DHT22;49000;50.698;13.322;2024-03-23T11:04:30;4.00;99.90
62904;DHT22;49000;50.698;13.322;2024-03-23T11:06:57;4.40;99.90
62904;DHT22;49000;50.698;13.322;2024-03-23T11:14:51;4.10;99.90
62904;DHT22;49000;50.698;13.322;2024-03-23T11:17:24;3.70;99.90
62904;DHT22;49000;50.698;13.322;2024-03-23T11:22:51;4.20;99.90
62904;DHT22;49000;50.698;13.322;2024-03-23T11:25:21;4.10;99.90
62904;DHT22;49000;50.698;13.322;2024-03-23T11:27:49;3.80;99.90
62904;DHT22;49000;50.698;13.322;2024-03-23T11:30:17;3.90;99.90
62904;DHT22;49000;50.698;13.322;2024-03-23T11:32:44;3.90;98.70
62904;DHT22;49000;50.698;13.322;2024-03-23T11:35:09;3.80;99.90
62904;DHT22;49000;50.698;13.322;2024-03-23T11:37:36;3.90;99.90
62904;DHT22;49000;50.698;13.322;2024-03-23T11:40:17;3.60;91.80
62904;DHT22;49000;50.698;13.322;2024-03-23T11:42:43;3.70;95.10
62904;DHT22;49000;50.698;13.322;2024-03-23T11:45:09;3.80;99.90
62904;DHT22;49000;50.698;13.322;2024-03-23T11:47:34;4.00;83.10
62904;DHT22;49000;50.698;13.322;2024-03-23T11:50:00;3.50;53.90
62904;DHT22;49000;50.698;13.322;2024-03-23T11:52:25;4.00;90.70
62904;DHT22;49000;50.698;13.322;2024-03-23T11:54:51;3.70;86.30
62904;DHT22;49000;50.698;13.322;2024-03-23T11:57:16;3.50;99.40
62904;DHT22;49000;50.698;13.322;2024-03-23T11:59:42;3.70;99.90
62904;DHT22;49000;50.698;13.322;2024-03-23T12:02:09;3.70;99.90
62904;DHT22;49000;50.698;13.322;2024-03-23T12:04:36;3.40;99.90
62904;DHT22;49000;50.698;13.322;2024-03-23T12:07:30;3.60;99.90
62904;DHT22;49000;50.698;13.322;2024-03-23T12:10:05;3.70;99.90
62904;DHT22;49000;50.698;13.322;2024-03-23T12:12:34;3.70;99.90
62904;DHT22;49000;50.698;13.322;2024-03-23T12:15:04;3.60;99.90
62904;DHT22;49000;50.698;13.322;2024-03-23T12:17:31;3.40;99.90
62904;DHT22;49000;50.698;13.322;2024-03-23T12:19:56;3.30;99.90
62904;DHT22;49000;50.698;13.322;2024-03-23T12:22:22;3.70;99.90
62904;DHT22;49000;50.698;13.322;2024-03-23T12:24:48;3.20;99.90
62904;DHT22;49000;50.698;13.322;2024-03-23T12:27:14;3.50;99.90
62904;DHT22;49000;50.698;13.322;2024-03-23T12:29:43;3.60;99.90
62904;DHT22;49000;50.698;13.322;2024-03-23T12:32:11;3.40;99.90
62904;DHT22;49000;50.698;13.322;2024-03-23T12:34:37;3.80;93.20
62904;DHT22;49000;50.698;13.322;2024-03-23T12:37:02;3.90;90.50
62904;DHT22;49000;50.698;13.322;2024-03-23T12:39:28;3.80;94.00
62904;DHT22;49000;50.698;13.322;2024-03-23T12:41:53;3.90;96.80
62904;DHT22;49000;50.698;13.322;2024-03-23T12:44:19;3.50;94.00
62904;DHT22;49000;50.698;13.322;2024-03-23T12:46:45;3.40;98.60
62904;DHT22;49000;50.698;13.322;2024-03-23T12:49:11;3.60;99.90
62904;DHT22;49000;50.698;13.322;2024-03-23T12:51:36;3.20;99.90
62904;DHT22;49000;50.698;13.322;2024-03-23T12:54:02;3.50;96.30
62904;DHT22;49000;50.698;13.322;2024-03-23T12:56:28;3.30;99.90
62904;DHT22;49000;50.698;13.322;2024-03-23T12:58:54;3.00;99.90
62904;DHT22;49000;50.698;13.322;2024-03-23T13:01:20;3.50;99.90
62904;DHT22;49000;50.698;13.322;2024-03-23T13:03:49;3.80;99.90
62904;DHT22;49000;50.698;13.322;2024-03-23T13:06:16;3.60;99.90
62904;DHT22;49000;50.698;13.322;2024-03-23T13:08:44;3.70;99.90
62904;DHT22;49000;50.698;13.322;2024-03-23T13:11:10;3.40;99.90
62904;DHT22;49000;50.698;13.322;2024-03-23T13:13:36;3.50;99.90
62904;DHT22;49000;50.698;13.322;2024-03-23T13:16:01;3.40;91.10
62904;DHT22;49000;50.698;13.322;2024-03-23T13:18:28;3.30;94.90
62904;DHT22;49000;50.698;13.322;2024-03-23T13:20:54;3.30;98.70
62904;DHT22;49000;50.698;13.322;2024-03-23T13:23:19;3.20;99.90
62904;DHT22;49000;50.698;13.322;2024-03-23T13:25:52;3.30;99.90
62904;DHT22;49000;50.698;13.322;2024-03-23T13:28:21;3.70;99.90
62904;DHT22;49000;50.698;13.322;2024-03-23T13:30:55;4.30;99.90
62904;DHT22;49000;50.698;13.322;2024-03-23T13:33:20;4.00;99.90
62904;DHT22;49000;50.698;13.322;2024-03-23T13:35:52;4.50;99.90
62904;DHT22;49000;50.698;13.322;2024-03-23T13:38:18;4.60;36.40
62904;DHT22;49000;50.698;13.322;2024-03-23T13:40:58;4.90;1.00
62904;DHT22;49000;50.698;13.322;2024-03-23T13:43:25;4.80;1.00
62904;DHT22;49000;50.698;13.322;2024-03-23T13:45:55;4.90;1.00
62904;DHT22;49000;50.698;13.322;2024-03-23T13:48:22;4.90;1.00
62904;DHT22;49000;50.698;13.322;2024-03-23T13:50:57;5.00;1.00
62904;DHT22;49000;50.698;13.322;2024-03-23T13:53:22;4.70;1.00
62904;DHT22;49000;50.698;13.322;2024-03-23T13:55:49;5.00;1.00
62904;DHT22;49000;50.698;13.322;2024-03-23T13:58:15;5.60;1.00
62904;DHT22;49000;50.698;13.322;2024-03-23T14:00:41;5.70;1.00
62904;DHT22;49000;50.698;13.322;2024-03-23T14:03:11;6.50;99.90
62904;DHT22;49000;50.698;13.322;2024-03-23T14:05:37;5.80;99.90
62904;DHT22;49000;50.698;13.322;2024-03-23T14:08:06;5.80;99.90
62904;DHT22;49000;50.698;13.322;2024-03-23T14:10:32;6.00;99.90
62904;DHT22;49000;50.698;13.322;2024-03-23T14:12:57;6.10;99.90
62904;DHT22;49000;50.698;13.322;2024-03-23T14:15:25;6.00;99.90
62904;DHT22;49000;50.698;13.322;2024-03-23T14:17:51;6.10;99.90
62904;DHT22;49000;50.698;13.322;2024-03-23T14:20:16;6.30;99.90
62904;DHT22;49000;50.698;13.322;2024-03-23T14:22:42;6.30;99.90
62904;DHT22;49000;50.698;13.322;2024-03-23T14:25:09;6.50;34.30
62904;DHT22;49000;50.698;13.322;2024-03-23T14:27:35;7.20;49.60
62904;DHT22;49000;50.698;13.322;2024-03-23T14:30:04;7.50;1.00
62904;DHT22;49000;50.698;13.322;2024-03-23T14:32:30;7.90;99.90
62904;DHT22;49000;50.698;13.322;2024-03-23T14:35:02;8.00;99.90
62904;DHT22;49000;50.698;13.322;2024-03-23T14:37:28;7.90;99.90
62904;DHT22;49000;50.698;13.322;2024-03-23T14:39:55;8.10;99.90
62904;DHT22;49000;50.698;13.322;2024-03-23T14:42:22;8.10;99.90
62904;DHT22;49000;50.698;13.322;2024-03-23T14:44:47;8.10;99.90
62904;DHT22;49000;50.698;13.322;2024-03-23T14:47:13;7.90;99.90
62904;DHT22;49000;50.698;13.322;2024-03-23T14:49:38;7.70;99.90
62904;DHT22;49000;50.698;13.322;2024-03-23T14:52:04;7.40;99.90
62904;DHT22;49000;50.698;13.322;2024-03-23T14:54:29;7.20;99.90
62904;DHT22;49000;50.698;13.322;2024-03-23T14:56:55;7.10;99.90
62904;DHT22;49000;50.698;13.322;2024-03-23T14:59:23;6.50;99.90
62904;DHT22;49000;50.698;13.322;2024-03-23T15:01:49;6.50;99.90
62904;DHT22;49000;50.698;13.322;2024-03-23T15:04:14;6.40;99.90
62904;DHT22;49000;50.698;13.322;2024-03-23T15:06:40;6.30;99.90
62904;DHT22;49000;50.698;13.322;2024-03-23T15:09:05;6.70;99.90
62904;DHT22;49000;50.698;13.322;2024-03-23T15:11:37;6.70;99.90
62904;DHT22;49000;50.698;13.322;2024-03-23T15:14:02;6.20;99.90
62904;DHT22;49000;50.698;13.322;2024-03-23T15:16:28;6.10;99.90
62904;DHT22;49000;50.698;13.322;2024-03-23T15:18:53;6.50;99.90
62904;DHT22;49000;50.698;13.322;2024-03-23T15:21:18;6.70;99.90
62904;DHT22;49000;50.698;13.322;2024-03-23T15:23:47;6.50;99.90
62904;DHT22;49000;50.698;13.322;2024-03-23T15:26:13;7.30;99.90
62904;DHT22;49000;50.698;13.322;2024-03-23T15:28:38;6.80;99.90
62904;DHT22;49000;50.698;13.322;2024-03-23T15:31:18;7.10;99.90
62904;DHT22;49000;50.698;13.322;2024-03-23T15:33:44;6.80;99.90
62904;DHT22;49000;50.698;13.322;2024-03-23T15:36:09;6.80;99.90
62904;DHT22;49000;50.698;13.322;2024-03-23T15:38:35;6.80;99.90
62904;DHT22;49000;50.698;13.322;2024-03-23T15:41:00;6.70;99.90
62904;DHT22;49000;50.698;13.322;2024-03-23T15:43:26;6.60;99.90
62904;DHT22;49000;50.698;13.322;2024-03-23T15:45:59;6.60;99.90
62904;DHT22;49000;50.698;13.322;2024-03-23T15:48:29;7.00;99.90
62904;DHT22;49000;50.698;13.322;2024-03-23T15:51:04;7.00;99.90
62904;DHT22;49000;50.698;13.322;2024-03-23T15:53:30;7.40;99.90
62904;DHT22;49000;50.698;13.322;2024-03-23T15:56:00;7.50;99.90
62904;DHT22;49000;50.698;13.322;2024-03-23T15:58:26;7.50;99.90
62904;DHT22;49000;50.698;13.322;2024-03-23T16:03:22;7.10;99.90
62904;DHT22;49000;50.698;13.322;2024-03-23T16:05:51;7.20;99.90
62904;DHT22;49000;50.698;13.322;2024-03-23T16:08:16;7.40;99.90
62904;DHT22;49000;50.698;13.322;2024-03-23T16:10:42;7.20;99.90
62904;DHT22;49000;50.698;13.322;2024-03-23T16:13:07;7.20;99.90
62904;DHT22;49000;50.698;13.322;2024-03-23T16:15:33;7.00;99.90
62904;DHT22;49000;50.698;13.322;2024-03-23T16:17:58;6.90;99.90
62904;DHT22;49000;50.698;13.322;2024-03-23T16:20:23;6.90;99.90
62904;DHT22;49000;50.698;13.322;2024-03-23T16:22:49;6.90;99.90
62904;DHT22;49000;50.698;13.322;2024-03-23T16:25:14;6.80;99.90
62904;DHT22;49000;50.698;13.322;2024-03-23T16:27:40;6.50;99.90
62904;DHT22;49000;50.698;13.322;2024-03-23T16:30:06;6.10;99.90
62904;DHT22;49000;50.698;13.322;2024-03-23T16:32:32;6.30;99.90
62904;DHT22;49000;50.698;13.322;2024-03-23T16:35:00;5.70;99.90
62904;DHT22;49000;50.698;13.322;2024-03-23T16:37:25;6.10;99.90
62904;DHT22;49000;50.698;13.322;2024-03-23T16:39:51;5.90;99.90